createdAt,value
2019-01-21T07:06:25.596Z,88.00
2019-01-21T07:07:27.677Z,88.00
2019-01-21T07:08:26.747Z,84.00
2019-01-21T07:09:26.769Z,84.00
2019-01-21T07:10:26.341Z,88.00
2019-01-21T07:11:26.414Z,84.00
2019-01-21T07:12:26.322Z,84.00
2019-01-21T07:13:26.330Z,88.00
2019-01-21T07:14:26.309Z,88.00
2019-01-21T07:15:26.290Z,88.00
2019-01-21T07:16:26.300Z,84.00
2019-01-21T07:17:26.287Z,84.00
2019-01-21T07:18:26.265Z,84.00
2019-01-21T07:19:26.286Z,84.00
2019-01-21T07:20:26.280Z,88.00
2019-01-21T07:21:26.251Z,88.00
2019-01-21T07:23:26.174Z,88.00
2019-01-21T07:23:32.501Z,88.00
2019-01-21T07:24:26.296Z,88.00
2019-01-21T07:25:26.187Z,88.00
2019-01-21T07:26:26.178Z,92.00
2019-01-21T07:27:26.198Z,88.00
2019-01-21T07:28:26.160Z,92.00
2019-01-21T07:29:26.150Z,92.00
2019-01-21T07:30:26.141Z,92.00
2019-01-21T07:31:26.135Z,96.00
2019-01-21T07:32:26.133Z,92.00
2019-01-21T07:33:26.094Z,92.00
2019-01-21T07:34:26.064Z,96.00
2019-01-21T07:35:26.086Z,92.00
2019-01-21T07:36:26.097Z,96.00
2019-01-21T07:37:26.083Z,96.00
2019-01-21T07:38:29.005Z,96.00
2019-01-21T07:39:29.121Z,100.00
2019-01-21T07:40:26.031Z,96.00
2019-01-21T07:41:25.992Z,100.00
2019-01-21T07:42:26.809Z,100.00
2019-01-21T07:43:25.941Z,100.00
2019-01-21T07:44:25.974Z,96.00
2019-01-21T07:45:26.055Z,100.00
2019-01-21T07:46:26.041Z,100.00
2019-01-21T07:47:27.928Z,100.00
2019-01-21T07:48:25.926Z,104.00
2019-01-21T07:49:25.917Z,104.00
2019-01-21T07:50:25.873Z,104.00
2019-01-21T07:51:25.974Z,104.00
2019-01-21T07:52:25.854Z,104.00
2019-01-21T07:53:25.938Z,104.00
2019-01-21T07:54:25.896Z,108.00
2019-01-21T07:55:25.823Z,108.00
2019-01-21T07:56:26.131Z,108.00
2019-01-21T07:57:25.797Z,108.00
2019-01-21T07:58:25.930Z,108.00
2019-01-21T07:59:25.777Z,112.00
2019-01-21T08:00:25.800Z,112.00
2019-01-21T08:01:25.754Z,112.00
2019-01-21T08:02:25.818Z,112.00
2019-01-21T08:03:25.793Z,116.00
2019-01-21T08:04:26.134Z,116.00
2019-01-21T08:05:25.849Z,116.00
2019-01-21T08:06:25.694Z,116.00
2019-01-21T08:07:25.728Z,116.00
2019-01-21T08:08:25.681Z,112.00
2019-01-21T08:09:29.827Z,116.00
2019-01-21T08:10:25.666Z,116.00
2019-01-21T08:11:26.232Z,120.00
2019-01-21T08:12:25.650Z,116.00
2019-01-21T08:13:25.706Z,112.00
2019-01-21T08:14:25.685Z,116.00
2019-01-21T08:15:26.415Z,120.00
2019-01-21T08:16:25.593Z,116.00
2019-01-21T08:17:25.588Z,124.00
2019-01-21T08:18:26.263Z,120.00
2019-01-21T08:19:25.578Z,124.00
2019-01-21T08:20:25.542Z,116.00
2019-01-21T08:21:26.380Z,116.00
2019-01-21T08:22:25.590Z,120.00
2019-01-21T08:23:30.229Z,120.00
2019-01-21T08:24:25.496Z,120.00
2019-01-21T08:25:25.485Z,124.00
2019-01-21T08:26:26.323Z,124.00
2019-01-21T08:27:25.503Z,124.00
2019-01-21T08:28:26.271Z,124.00
2019-01-21T08:29:29.563Z,128.00
2019-01-21T08:30:25.497Z,128.00
2019-01-21T08:31:25.418Z,128.00
2019-01-21T08:32:28.312Z,128.00
2019-01-21T08:33:25.413Z,124.00
2019-01-21T08:34:25.451Z,124.00
2019-01-21T08:35:26.654Z,124.00
2019-01-21T08:36:25.364Z,128.00
2019-01-21T08:37:26.074Z,128.00
2019-01-21T08:38:25.542Z,124.00
2019-01-21T08:39:25.338Z,128.00
2019-01-21T08:40:25.334Z,128.00
2019-01-21T08:41:25.305Z,132.00
2019-01-21T08:42:25.314Z,132.00
2019-01-21T08:43:25.315Z,128.00
2019-01-21T08:44:25.316Z,132.00
2019-01-21T08:45:25.343Z,132.00
2019-01-21T08:46:25.301Z,136.00
2019-01-21T08:47:28.631Z,136.00
2019-01-21T08:48:25.251Z,132.00
2019-01-21T08:49:31.794Z,140.00
2019-01-21T08:50:25.210Z,140.00
2019-01-21T08:51:25.223Z,140.00
2019-01-21T08:52:25.220Z,140.00
2019-01-21T08:53:25.212Z,140.00
2019-01-21T08:54:25.179Z,144.00
2019-01-21T08:55:25.185Z,140.00
2019-01-21T08:56:25.224Z,144.00
2019-01-21T08:57:25.176Z,144.00
2019-01-21T08:58:25.146Z,144.00
2019-01-21T08:59:25.776Z,144.00
2019-01-21T09:00:25.192Z,144.00
2019-01-21T09:01:25.185Z,148.00
2019-01-21T09:02:25.164Z,148.00
2019-01-21T09:03:25.155Z,148.00
2019-01-21T09:04:25.211Z,148.00
2019-01-21T09:05:25.072Z,148.00
2019-01-21T09:06:25.118Z,144.00
2019-01-21T09:07:25.100Z,148.00
2019-01-21T09:08:25.099Z,148.00
2019-01-21T09:09:25.958Z,148.00
2019-01-21T09:10:25.110Z,152.00
2019-01-21T09:11:28.002Z,148.00
2019-01-21T09:12:25.058Z,148.00
2019-01-21T09:13:25.095Z,148.00
2019-01-21T09:14:24.990Z,152.00
2019-01-21T09:15:25.038Z,152.00
2019-01-21T09:16:24.938Z,148.00
2019-01-21T09:17:24.970Z,148.00
2019-01-21T09:18:25.008Z,152.00
2019-01-21T09:19:25.764Z,152.00
2019-01-21T09:20:25.943Z,152.00
2019-01-21T09:21:24.923Z,156.00
2019-01-21T09:22:24.903Z,152.00
2019-01-21T09:23:24.952Z,152.00
2019-01-21T09:24:24.884Z,152.00
2019-01-21T09:25:24.891Z,152.00
2019-01-21T09:26:24.872Z,156.00
2019-01-21T09:27:24.917Z,156.00
2019-01-21T09:28:24.797Z,156.00
2019-01-21T09:29:24.845Z,156.00
2019-01-21T09:30:28.903Z,152.00
2019-01-21T09:31:25.142Z,152.00
2019-01-21T09:32:24.791Z,156.00
2019-01-21T09:33:24.873Z,156.00
2019-01-21T09:34:24.768Z,156.00
2019-01-21T09:35:24.771Z,156.00
2019-01-21T09:36:24.729Z,156.00
2019-01-21T09:37:24.746Z,156.00
2019-01-21T09:38:24.759Z,160.00
2019-01-21T09:39:24.732Z,156.00
2019-01-21T09:40:24.689Z,156.00
2019-01-21T09:41:24.660Z,160.00
2019-01-21T09:42:24.764Z,160.00
2019-01-21T09:43:24.673Z,160.00
2019-01-21T09:44:24.647Z,156.00
2019-01-21T09:45:24.619Z,160.00
2019-01-21T09:46:24.638Z,160.00
2019-01-21T09:47:24.610Z,160.00
2019-01-21T09:48:24.622Z,160.00
2019-01-21T09:49:24.624Z,160.00
2019-01-21T09:50:24.605Z,160.00
2019-01-21T09:51:24.568Z,160.00
2019-01-21T09:52:24.531Z,164.00
2019-01-21T09:53:24.606Z,164.00
2019-01-21T09:54:25.352Z,160.00
2019-01-21T09:55:24.666Z,164.00
2019-01-21T09:56:24.563Z,164.00
2019-01-21T09:57:24.543Z,164.00
2019-01-21T09:58:24.560Z,164.00
2019-01-21T09:59:27.566Z,164.00
2019-01-21T10:00:24.591Z,168.00
2019-01-21T10:01:25.193Z,164.00
2019-01-21T10:02:25.521Z,164.00
2019-01-21T10:03:24.483Z,164.00
2019-01-21T10:04:27.484Z,164.00
2019-01-21T10:05:24.528Z,168.00
2019-01-21T10:06:24.388Z,164.00
2019-01-21T10:07:24.384Z,164.00
2019-01-21T10:08:24.374Z,168.00
2019-01-21T10:09:24.481Z,168.00
2019-01-21T10:10:25.290Z,168.00
2019-01-21T10:11:24.360Z,168.00
2019-01-21T10:12:24.381Z,164.00
2019-01-21T10:13:24.309Z,168.00
2019-01-21T10:14:24.322Z,168.00
2019-01-21T10:15:24.345Z,172.00
2019-01-21T10:16:25.322Z,168.00
2019-01-21T10:17:24.405Z,168.00
2019-01-21T10:18:25.325Z,172.00
2019-01-21T10:19:24.277Z,172.00
2019-01-21T10:20:24.335Z,168.00
2019-01-21T10:21:25.620Z,172.00
2019-01-21T10:22:27.198Z,172.00
2019-01-21T10:23:24.224Z,168.00
2019-01-21T10:24:24.203Z,164.00
2019-01-21T10:25:24.387Z,168.00
2019-01-21T10:26:24.256Z,168.00
2019-01-21T10:27:24.205Z,168.00
2019-01-21T10:28:24.184Z,172.00
2019-01-21T10:29:24.202Z,168.00
2019-01-21T10:30:24.138Z,160.00
2019-01-21T10:31:24.295Z,164.00
2019-01-21T10:32:24.440Z,164.00
2019-01-21T10:33:24.199Z,164.00
2019-01-21T10:34:24.110Z,164.00
2019-01-21T10:35:25.117Z,172.00
2019-01-21T10:36:24.440Z,168.00
2019-01-21T10:37:24.104Z,168.00
2019-01-21T10:38:24.159Z,164.00
2019-01-21T10:39:24.084Z,172.00
2019-01-21T10:40:24.114Z,176.00
2019-01-21T10:41:24.890Z,176.00
2019-01-21T10:42:25.566Z,172.00
2019-01-21T10:43:24.046Z,172.00
2019-01-21T10:44:24.063Z,172.00
2019-01-21T10:45:25.010Z,176.00
2019-01-21T10:46:24.818Z,176.00
2019-01-21T10:47:23.946Z,176.00
2019-01-21T10:48:24.029Z,176.00
2019-01-21T10:49:23.950Z,176.00
2019-01-21T10:50:24.032Z,176.00
2019-01-21T10:51:24.001Z,176.00
2019-01-21T10:52:23.917Z,176.00
2019-01-21T10:53:23.962Z,176.00
2019-01-21T10:54:23.919Z,176.00
2019-01-21T10:55:23.888Z,180.00
2019-01-21T10:56:23.835Z,180.00
2019-01-21T10:57:26.028Z,180.00
2019-01-21T10:58:23.834Z,180.00
2019-01-21T10:59:23.803Z,176.00
2019-01-21T11:00:23.843Z,176.00
2019-01-21T11:01:23.945Z,180.00
2019-01-21T11:02:24.027Z,180.00
2019-01-21T11:03:23.922Z,180.00
2019-01-21T11:04:23.909Z,172.00
2019-01-21T11:05:25.453Z,176.00
2019-01-21T11:06:23.787Z,176.00
2019-01-21T11:07:23.853Z,176.00
2019-01-21T11:08:23.743Z,180.00
2019-01-21T11:09:26.746Z,180.00
2019-01-21T11:10:23.740Z,176.00
2019-01-21T11:11:23.726Z,176.00
2019-01-21T11:12:24.283Z,176.00
2019-01-21T11:13:23.776Z,180.00
2019-01-21T11:14:23.650Z,176.00
2019-01-21T11:15:23.671Z,180.00
2019-01-21T11:16:23.635Z,180.00
2019-01-21T11:17:23.613Z,180.00
2019-01-21T11:18:23.853Z,184.00
2019-01-21T11:19:23.603Z,184.00
2019-01-21T11:20:23.590Z,184.00
2019-01-21T11:21:23.632Z,184.00
2019-01-21T11:22:24.258Z,184.00
2019-01-21T11:23:23.535Z,188.00
2019-01-21T11:24:23.529Z,188.00
2019-01-21T11:25:23.929Z,188.00
2019-01-21T11:26:23.543Z,196.00
2019-01-21T11:27:23.501Z,200.00
2019-01-21T11:28:23.491Z,200.00
2019-01-21T11:29:23.479Z,200.00
2019-01-21T11:30:23.502Z,204.00
2019-01-21T11:31:23.796Z,204.00
2019-01-21T11:32:23.474Z,204.00
2019-01-21T11:33:23.425Z,208.00
2019-01-21T11:34:23.496Z,208.00
2019-01-21T11:35:23.403Z,208.00
2019-01-21T11:36:23.436Z,208.00
2019-01-21T11:37:23.440Z,212.00
2019-01-21T11:38:23.375Z,208.00
2019-01-21T11:39:26.256Z,212.00
2019-01-21T11:40:23.366Z,212.00
2019-01-21T11:41:23.433Z,216.00
2019-01-21T11:42:23.390Z,212.00
2019-01-21T11:43:23.318Z,212.00
2019-01-21T11:44:23.333Z,208.00
2019-01-21T11:45:23.469Z,220.00
2019-01-21T11:46:23.417Z,220.00
2019-01-21T11:47:23.278Z,220.00
2019-01-21T11:48:23.273Z,224.00
2019-01-21T11:49:23.250Z,224.00
2019-01-21T11:50:23.282Z,224.00
2019-01-21T11:51:23.253Z,228.00
2019-01-21T11:52:23.218Z,228.00
2019-01-21T11:53:23.207Z,228.00
2019-01-21T11:54:23.198Z,228.00
2019-01-21T11:55:23.192Z,228.00
2019-01-21T11:56:23.238Z,232.00
2019-01-21T11:57:23.168Z,232.00
2019-01-21T11:58:24.165Z,232.00
2019-01-21T11:59:26.255Z,236.00
2019-01-21T12:00:26.937Z,236.00
2019-01-21T12:01:23.434Z,236.00
2019-01-21T12:02:23.853Z,236.00
2019-01-21T12:03:23.827Z,236.00
2019-01-21T12:04:23.448Z,240.00
2019-01-21T12:05:23.365Z,240.00
2019-01-21T12:06:23.399Z,240.00
2019-01-21T12:07:24.375Z,244.00
2019-01-21T12:08:23.374Z,244.00
2019-01-21T12:09:23.351Z,244.00
2019-01-21T12:10:23.387Z,244.00
2019-01-21T12:11:23.367Z,244.00
2019-01-21T12:12:23.750Z,248.00
2019-01-21T12:13:23.382Z,248.00
2019-01-21T12:14:23.385Z,248.00
2019-01-21T12:15:23.101Z,252.00
2019-01-21T12:16:23.025Z,256.00
2019-01-21T12:17:23.758Z,252.00
2019-01-21T12:18:23.042Z,256.00
2019-01-21T12:19:23.005Z,252.00
2019-01-21T12:20:23.007Z,252.00
2019-01-21T12:21:22.934Z,252.00
2019-01-21T12:22:22.891Z,248.00
2019-01-21T12:23:22.893Z,236.00
2019-01-21T12:24:22.890Z,248.00
2019-01-21T12:25:24.005Z,228.00
2019-01-21T12:26:22.893Z,224.00
2019-01-21T12:27:22.888Z,240.00
2019-01-21T12:28:22.835Z,260.00
2019-01-21T12:29:22.859Z,256.00
2019-01-21T12:30:22.833Z,256.00
2019-01-21T12:31:22.830Z,252.00
2019-01-21T12:32:23.185Z,256.00
2019-01-21T12:33:22.768Z,244.00
2019-01-21T12:35:36.957Z,256.00
2019-01-21T12:36:37.959Z,256.00
2019-01-21T12:37:37.949Z,256.00
2019-01-21T12:38:37.911Z,260.00
2019-01-21T12:39:37.909Z,260.00
2019-01-21T12:40:37.916Z,256.00
2019-01-21T12:41:37.874Z,252.00
2019-01-21T12:42:38.143Z,276.00
2019-01-21T12:43:37.882Z,280.00
2019-01-21T12:44:37.945Z,272.00
2019-01-21T12:45:37.851Z,276.00
2019-01-21T12:46:37.843Z,276.00
2019-01-21T12:47:37.864Z,276.00
2019-01-21T12:48:37.889Z,284.00
2019-01-21T12:49:37.810Z,288.00
2019-01-21T12:50:37.793Z,292.00
2019-01-21T12:51:37.763Z,296.00
2019-01-21T12:52:37.802Z,296.00
2019-01-21T12:53:37.793Z,296.00
2019-01-21T12:54:37.783Z,304.00
2019-01-21T12:55:37.741Z,300.00
2019-01-21T12:56:38.726Z,324.00
2019-01-21T12:57:37.727Z,332.00
2019-01-21T12:58:37.705Z,336.00
2019-01-21T12:59:37.698Z,316.00
2019-01-21T13:00:37.674Z,332.00
2019-01-21T13:01:37.689Z,336.00
2019-01-21T13:02:40.010Z,356.00
2019-01-21T13:03:37.652Z,364.00
2019-01-21T13:04:37.643Z,372.00
2019-01-21T13:05:40.844Z,376.00
2019-01-21T13:06:37.647Z,384.00
2019-01-21T13:07:37.613Z,388.00
2019-01-21T13:08:37.608Z,404.00
2019-01-21T13:09:37.576Z,424.00
2019-01-21T13:10:37.703Z,448.00
2019-01-21T13:11:37.559Z,456.00
2019-01-21T13:12:37.609Z,476.00
2019-01-21T13:13:37.536Z,480.00
2019-01-21T13:14:37.529Z,488.00
2019-01-21T13:15:37.515Z,492.00
2019-01-21T13:16:37.495Z,492.00
2019-01-21T13:17:37.492Z,496.00
2019-01-21T13:18:37.526Z,504.00
2019-01-21T13:19:38.255Z,508.00
2019-01-21T13:20:37.533Z,508.00
2019-01-21T13:21:37.474Z,508.00
2019-01-21T13:22:37.448Z,512.00
2019-01-21T13:23:37.436Z,500.00
2019-01-21T13:24:37.406Z,504.00
2019-01-21T13:25:37.398Z,496.00
2019-01-21T13:26:37.432Z,508.00
2019-01-21T13:27:37.622Z,512.00
2019-01-21T13:28:37.392Z,508.00
2019-01-21T13:29:37.380Z,512.00
2019-01-21T13:30:37.387Z,512.00
2019-01-21T13:31:37.353Z,512.00
2019-01-21T13:32:37.350Z,512.00
2019-01-21T13:33:37.333Z,512.00
2019-01-21T13:34:38.269Z,508.00
2019-01-21T13:35:37.290Z,508.00
2019-01-21T13:36:37.292Z,516.00
2019-01-21T13:37:37.410Z,532.00
2019-01-21T13:38:37.286Z,524.00
2019-01-21T13:39:37.766Z,524.00
2019-01-21T13:40:37.245Z,524.00
2019-01-21T13:41:37.360Z,520.00
2019-01-21T13:42:37.227Z,512.00
2019-01-21T13:43:37.229Z,508.00
2019-01-21T13:44:37.205Z,492.00
2019-01-21T13:45:37.184Z,468.00
2019-01-21T13:46:37.169Z,468.00
2019-01-21T13:47:37.199Z,460.00
2019-01-21T13:48:37.165Z,452.00
2019-01-21T13:49:37.164Z,452.00
2019-01-21T13:50:37.415Z,444.00
2019-01-21T13:51:37.111Z,444.00
2019-01-21T13:52:37.100Z,428.00
2019-01-21T13:53:37.099Z,424.00
2019-01-21T13:54:37.091Z,420.00
2019-01-21T13:55:37.126Z,420.00
2019-01-21T13:56:49.960Z,404.00
2019-01-21T13:57:37.057Z,400.00
2019-01-21T13:58:37.037Z,408.00
2019-01-21T13:59:37.054Z,416.00
2019-01-21T14:00:37.019Z,416.00
2019-01-21T14:01:37.031Z,416.00
2019-01-21T14:02:36.996Z,396.00
2019-01-21T14:03:37.580Z,388.00
2019-01-21T14:04:37.069Z,400.00
2019-01-21T14:05:37.013Z,408.00
2019-01-21T14:06:36.952Z,408.00
2019-01-21T14:07:36.937Z,400.00
2019-01-21T14:08:36.932Z,400.00
2019-01-21T14:09:36.971Z,388.00
2019-01-21T14:10:36.987Z,384.00
2019-01-21T14:11:36.950Z,392.00
2019-01-21T14:12:36.991Z,384.00
2019-01-21T14:13:36.959Z,376.00
2019-01-21T14:14:36.900Z,368.00
2019-01-21T14:15:36.848Z,356.00
2019-01-21T14:16:36.847Z,348.00
2019-01-21T14:17:37.845Z,340.00
2019-01-21T14:18:36.817Z,340.00
2019-01-21T14:19:36.833Z,352.00
2019-01-21T14:20:36.807Z,360.00
2019-01-21T14:21:36.844Z,380.00
2019-01-21T14:22:36.784Z,384.00
2019-01-21T14:23:36.788Z,392.00
2019-01-21T14:24:36.766Z,400.00
2019-01-21T14:25:36.737Z,412.00
2019-01-21T14:26:36.734Z,408.00
2019-01-21T14:27:36.755Z,424.00
2019-01-21T14:28:36.722Z,424.00
2019-01-21T14:29:36.715Z,428.00
2019-01-21T14:30:36.706Z,432.00
2019-01-21T14:31:36.727Z,428.00
2019-01-21T14:32:36.686Z,432.00
2019-01-21T14:33:36.659Z,436.00
2019-01-21T14:34:36.676Z,428.00
2019-01-21T14:35:36.653Z,424.00
2019-01-21T14:36:36.654Z,424.00
2019-01-21T14:37:36.628Z,420.00
2019-01-21T14:38:36.605Z,408.00
2019-01-21T14:39:36.603Z,404.00
2019-01-21T14:40:36.576Z,400.00
2019-01-21T14:41:36.589Z,400.00
2019-01-21T14:42:36.559Z,396.00
2019-01-21T14:43:36.570Z,392.00
2019-01-21T14:44:36.555Z,384.00
2019-01-21T14:45:36.532Z,384.00
2019-01-21T14:46:36.525Z,380.00
2019-01-21T14:47:36.502Z,376.00
2019-01-21T14:48:36.534Z,364.00
2019-01-21T14:49:36.506Z,316.00
2019-01-21T14:50:36.482Z,308.00
2019-01-21T14:51:36.799Z,324.00
2019-01-21T14:52:36.503Z,308.00
2019-01-21T14:53:36.735Z,292.00
2019-01-21T14:54:36.525Z,276.00
2019-01-21T14:55:36.439Z,264.00
2019-01-21T14:56:36.483Z,256.00
2019-01-21T14:57:36.406Z,160.00
2019-01-21T14:58:36.497Z,152.00
2019-01-21T14:59:36.380Z,140.00
2019-01-21T15:00:36.371Z,132.00
2019-01-21T15:01:36.367Z,124.00
2019-01-21T15:02:36.341Z,116.00
2019-01-21T15:03:36.360Z,108.00
2019-01-21T15:04:36.410Z,104.00
2019-01-21T15:05:36.311Z,100.00
2019-01-21T15:06:36.359Z,92.00
2019-01-21T15:07:36.347Z,88.00
2019-01-21T15:08:36.338Z,80.00
2019-01-21T15:09:36.320Z,80.00
2019-01-21T15:10:36.258Z,72.00
2019-01-21T15:11:36.320Z,72.00
2019-01-21T15:12:36.226Z,68.00
2019-01-21T15:13:36.230Z,64.00
2019-01-21T15:14:36.232Z,64.00
2019-01-21T15:15:36.224Z,64.00
2019-01-21T15:16:36.236Z,60.00
2019-01-21T15:17:36.173Z,56.00
2019-01-21T15:18:36.226Z,56.00
2019-01-21T15:19:36.225Z,56.00
2019-01-21T15:20:36.238Z,52.00
2019-01-21T15:21:36.134Z,52.00
2019-01-21T15:22:36.202Z,48.00
2019-01-21T15:23:36.114Z,48.00
2019-01-21T15:24:36.139Z,48.00
2019-01-21T15:25:36.162Z,44.00
2019-01-21T15:26:36.085Z,48.00
2019-01-21T15:27:36.150Z,48.00
2019-01-21T15:28:36.069Z,96.00
2019-01-21T15:29:36.081Z,124.00
2019-01-21T15:30:36.140Z,132.00
2019-01-21T15:31:36.044Z,128.00
2019-01-21T15:32:36.110Z,124.00
2019-01-21T15:33:36.064Z,124.00
2019-01-21T15:34:36.029Z,36.00
2019-01-21T15:35:35.976Z,36.00
2019-01-21T15:36:36.034Z,36.00
2019-01-21T15:37:36.035Z,32.00
2019-01-21T15:38:35.963Z,32.00
2019-01-21T15:39:35.967Z,32.00
2019-01-21T15:40:35.933Z,28.00
2019-01-21T15:41:36.101Z,28.00
2019-01-21T15:42:35.999Z,28.00
2019-01-21T15:43:35.980Z,24.00
2019-01-21T15:44:35.953Z,24.00
2019-01-21T15:45:35.968Z,24.00
2019-01-21T15:46:35.905Z,20.00
2019-01-21T15:47:35.868Z,20.00
2019-01-21T15:48:35.841Z,20.00
2019-01-21T15:49:35.851Z,16.00
2019-01-21T15:50:35.827Z,20.00
2019-01-21T15:51:35.818Z,16.00
2019-01-21T15:52:35.797Z,16.00
2019-01-21T15:53:35.788Z,16.00
2019-01-21T15:54:35.781Z,12.00
2019-01-21T15:55:35.761Z,16.00
2019-01-21T15:56:35.750Z,12.00
2019-01-21T15:57:35.749Z,12.00
2019-01-21T15:58:35.721Z,12.00
2019-01-21T15:59:35.740Z,8.00
2019-01-21T16:00:35.703Z,12.00
2019-01-21T16:01:35.706Z,8.00
2019-01-21T16:02:35.705Z,8.00
2019-01-21T16:03:35.673Z,8.00
2019-01-21T16:04:35.800Z,8.00
2019-01-21T16:05:35.665Z,4.00
2019-01-21T16:06:35.635Z,8.00
2019-01-21T16:07:35.628Z,4.00
2019-01-21T16:08:35.619Z,4.00
2019-01-21T16:09:35.707Z,8.00
2019-01-21T16:10:35.635Z,4.00
2019-01-21T16:11:35.585Z,4.00
2019-01-21T16:12:35.604Z,0.00
2019-01-21T16:13:35.564Z,4.00
2019-01-21T16:14:36.492Z,4.00
2019-01-21T16:15:35.561Z,4.00
2019-01-21T16:16:35.528Z,0.00
2019-01-21T16:17:35.521Z,4.00
2019-01-21T16:18:35.509Z,4.00
2019-01-21T16:19:35.492Z,0.00
2019-01-21T16:20:35.531Z,0.00
2019-01-21T16:21:35.484Z,0.00
2019-01-21T16:22:35.476Z,4.00
2019-01-21T16:23:35.448Z,0.00
2019-01-21T16:24:35.446Z,0.00
2019-01-21T16:25:35.445Z,0.00
2019-01-21T16:26:35.596Z,0.00
2019-01-21T16:27:35.423Z,0.00
2019-01-21T16:28:35.478Z,0.00
2019-01-21T16:29:35.388Z,0.00
2019-01-21T16:30:35.396Z,0.00
2019-01-21T16:31:35.370Z,0.00
2019-01-21T16:32:35.373Z,0.00
2019-01-21T16:33:35.335Z,0.00
2019-01-21T16:34:35.336Z,0.00
2019-01-21T16:35:35.337Z,0.00
2019-01-21T16:36:35.316Z,0.00
2019-01-21T16:37:35.301Z,0.00
2019-01-21T16:38:35.290Z,0.00
2019-01-21T16:39:35.280Z,0.00
2019-01-21T16:40:35.282Z,0.00
2019-01-21T16:41:35.255Z,0.00
2019-01-21T16:42:35.248Z,0.00
2019-01-21T16:43:35.238Z,0.00
2019-01-21T16:44:35.281Z,0.00
2019-01-21T16:45:35.230Z,0.00
2019-01-21T16:46:35.741Z,0.00
2019-01-21T16:47:35.193Z,0.00
2019-01-21T16:48:36.423Z,0.00
2019-01-21T16:49:35.170Z,0.00
2019-01-21T16:50:35.195Z,0.00
2019-01-21T16:51:35.213Z,0.00
2019-01-21T16:52:36.893Z,0.00
2019-01-21T16:53:35.125Z,0.00
2019-01-21T16:54:35.132Z,0.00
2019-01-21T16:55:35.196Z,0.00
2019-01-21T16:56:35.099Z,0.00
2019-01-21T16:57:35.171Z,0.00
2019-01-21T16:58:35.088Z,0.00
2019-01-21T16:59:35.050Z,0.00
2019-01-21T17:00:35.118Z,0.00
2019-01-21T17:01:35.036Z,0.00
2019-01-21T17:02:35.039Z,0.00
2019-01-21T17:03:35.024Z,0.00
2019-01-21T17:04:35.019Z,0.00
2019-01-21T17:05:35.029Z,0.00
2019-01-21T17:06:34.989Z,0.00
2019-01-21T17:07:34.966Z,0.00
2019-01-21T17:08:34.965Z,0.00
2019-01-21T17:09:34.972Z,0.00
2019-01-21T17:10:39.126Z,0.00
2019-01-21T17:11:34.943Z,0.00
2019-01-21T17:12:35.897Z,0.00
2019-01-21T17:13:34.926Z,0.00
2019-01-21T17:14:34.906Z,0.00
2019-01-21T17:15:34.898Z,0.00
2019-01-21T17:16:34.897Z,0.00
2019-01-21T17:17:34.862Z,0.00
2019-01-21T17:18:34.851Z,0.00
2019-01-21T17:19:34.844Z,0.00
2019-01-21T17:20:34.840Z,0.00
2019-01-21T17:22:34.820Z,0.00
2019-01-21T17:23:34.796Z,0.00
2019-01-21T17:24:34.779Z,0.00
2019-01-21T17:25:34.796Z,0.00
2019-01-21T17:26:34.762Z,0.00
2019-01-21T17:27:34.755Z,0.00
2019-01-21T17:28:34.744Z,0.00
2019-01-21T17:29:34.800Z,0.00
2019-01-21T17:30:34.752Z,0.00
2019-01-21T17:31:34.715Z,0.00
2019-01-21T17:32:34.714Z,0.00
2019-01-21T17:33:34.686Z,0.00
2019-01-21T17:34:34.685Z,0.00
2019-01-21T17:35:34.682Z,0.00
2019-01-21T17:36:34.661Z,0.00
2019-01-21T17:37:34.662Z,0.00
2019-01-21T17:38:34.661Z,0.00
2019-01-21T17:39:34.620Z,0.00
2019-01-21T17:40:34.629Z,0.00
2019-01-21T17:41:34.610Z,0.00
2019-01-21T17:42:34.623Z,0.00
2019-01-21T17:43:34.586Z,0.00
2019-01-21T17:44:34.563Z,0.00
2019-01-21T17:45:34.576Z,0.00
2019-01-21T17:46:34.547Z,0.00
2019-01-21T17:47:34.549Z,0.00
2019-01-21T17:48:34.527Z,0.00
2019-01-21T17:49:34.515Z,0.00
2019-01-21T17:50:34.504Z,0.00
2019-01-21T17:51:35.425Z,0.00
2019-01-21T17:52:34.509Z,0.00
2019-01-21T17:53:34.481Z,0.00
2019-01-21T17:54:35.302Z,0.00
2019-01-21T17:55:34.454Z,0.00
2019-01-21T17:56:34.448Z,0.00
2019-01-21T17:57:34.421Z,0.00
2019-01-21T17:58:34.420Z,0.00
2019-01-21T17:59:34.419Z,0.00
2019-01-21T18:00:34.502Z,0.00
2019-01-21T18:01:39.224Z,0.00
2019-01-21T18:02:34.378Z,0.00
2019-01-21T18:03:34.360Z,0.00
2019-01-21T18:04:34.350Z,0.00
2019-01-21T18:05:34.343Z,0.00
2019-01-21T18:06:34.359Z,0.00
2019-01-21T18:07:35.252Z,0.00
2019-01-21T18:08:34.305Z,0.00
2019-01-21T18:09:34.298Z,0.00
2019-01-21T18:10:34.309Z,0.00
2019-01-21T18:11:34.285Z,0.00
2019-01-21T18:12:34.268Z,0.00
2019-01-21T18:13:34.250Z,0.00
2019-01-21T18:14:34.241Z,0.00
2019-01-21T18:15:34.258Z,0.00
2019-01-21T18:16:34.254Z,0.00
2019-01-21T18:17:34.209Z,0.00
2019-01-21T18:18:34.280Z,0.00
2019-01-21T18:19:34.185Z,0.00
2019-01-21T18:20:34.178Z,0.00
2019-01-21T18:21:39.978Z,0.00
2019-01-21T18:22:34.748Z,0.00
2019-01-21T18:23:34.141Z,0.00
2019-01-21T18:24:34.131Z,0.00
2019-01-21T18:25:34.125Z,0.00
2019-01-21T18:26:34.130Z,0.00
2019-01-21T18:27:34.113Z,0.00
2019-01-21T18:28:34.104Z,0.00
2019-01-21T18:29:34.089Z,0.00
2019-01-21T18:30:34.066Z,0.00
2019-01-21T18:31:34.066Z,0.00
2019-01-21T18:32:34.059Z,0.00
2019-01-21T18:33:34.046Z,0.00
2019-01-21T18:34:34.096Z,0.00
2019-01-21T18:35:34.019Z,0.00
2019-01-21T18:36:34.020Z,0.00
2019-01-21T18:37:33.992Z,0.00
2019-01-21T18:38:33.978Z,0.00
2019-01-21T18:39:33.969Z,0.00
2019-01-21T18:40:34.049Z,0.00
2019-01-21T18:41:34.069Z,0.00
2019-01-21T18:42:33.953Z,0.00
2019-01-21T18:43:33.922Z,0.00
2019-01-21T18:44:33.906Z,0.00
2019-01-21T18:45:33.902Z,0.00
2019-01-21T18:46:33.904Z,0.00
2019-01-21T18:47:33.916Z,0.00
2019-01-21T18:48:33.929Z,0.00
2019-01-21T18:49:33.865Z,0.00
2019-01-21T18:50:33.969Z,0.00
2019-01-21T18:51:33.851Z,0.00
2019-01-21T18:52:33.828Z,0.00
2019-01-21T18:53:33.833Z,0.00
2019-01-21T18:54:33.803Z,0.00
2019-01-21T18:55:33.790Z,0.00
2019-01-21T18:56:33.785Z,0.00
2019-01-21T18:57:34.031Z,0.00
2019-01-21T18:58:33.762Z,0.00
2019-01-21T18:59:33.748Z,0.00
2019-01-21T19:00:33.744Z,0.00
2019-01-21T19:01:33.737Z,0.00
2019-01-21T19:02:33.728Z,0.00
2019-01-21T19:03:33.713Z,0.00
2019-01-21T19:04:33.694Z,0.00
2019-01-21T19:05:33.692Z,0.00
2019-01-21T19:06:33.817Z,0.00
2019-01-21T19:07:33.665Z,0.00
2019-01-21T19:08:33.653Z,0.00
2019-01-21T19:09:33.682Z,0.00
2019-01-21T19:10:33.640Z,0.00
2019-01-21T19:11:33.636Z,0.00
2019-01-21T19:12:33.708Z,0.00
2019-01-21T19:13:33.607Z,0.00
2019-01-21T19:14:33.616Z,0.00
2019-01-21T19:15:33.576Z,0.00
2019-01-21T19:16:33.703Z,0.00
2019-01-21T19:17:33.570Z,0.00
2019-01-21T19:18:33.537Z,0.00
2019-01-21T19:19:33.575Z,0.00
2019-01-21T19:20:33.528Z,0.00
2019-01-21T19:21:33.507Z,0.00
2019-01-21T19:22:33.517Z,0.00
2019-01-21T19:23:33.497Z,0.00
2019-01-21T19:24:33.473Z,0.00
2019-01-21T19:25:33.477Z,0.00
2019-01-21T19:26:33.472Z,0.00
2019-01-21T19:27:33.552Z,0.00
2019-01-21T19:28:33.437Z,0.00
2019-01-21T19:29:33.432Z,0.00
2019-01-21T19:30:33.413Z,0.00
2019-01-21T19:31:33.401Z,0.00
2019-01-21T19:32:33.424Z,0.00
2019-01-21T19:33:33.383Z,0.00
2019-01-21T19:34:33.370Z,0.00
2019-01-21T19:35:33.372Z,0.00
2019-01-21T19:36:33.355Z,0.00
2019-01-21T19:37:33.345Z,0.00
2019-01-21T19:38:33.387Z,0.00
2019-01-21T19:39:33.328Z,0.00
2019-01-21T19:40:33.308Z,0.00
2019-01-21T19:41:33.349Z,0.00
2019-01-21T19:42:33.298Z,0.00
2019-01-21T19:43:33.271Z,0.00
2019-01-21T19:44:33.275Z,0.00
2019-01-21T19:45:33.260Z,0.00
2019-01-21T19:46:33.245Z,0.00
2019-01-21T19:47:33.249Z,0.00
2019-01-21T19:48:33.215Z,0.00
2019-01-21T19:49:33.207Z,0.00
2019-01-21T19:50:33.206Z,0.00
2019-01-21T19:51:33.180Z,0.00
2019-01-21T19:52:33.227Z,0.00
2019-01-21T19:53:33.169Z,0.00